Time;durP1;ratioP1;P1;durP2;ratioP2;P2;SDS_P1;SDS_P2;PMS_P1;PMS_P2;Temp;Humidity;BMP_temperature;BMP_pressure;BME280_temperature;BME280_humidity;BME280_pressure;Samples;Min_cycle;Max_cycle;Signal;HPM_P1;HPM_P2
2023/02/16 00:00:15;;;;;;;84.40;42.80;;;0.20;99.90;;;;;;2621166;46;20033;31
2023/02/16 00:02:50;;;;;;;83.45;40.25;;;0.10;99.90;;;;;;2603378;54;20029;31
2023/02/16 00:05:26;;;;;;;97.45;47.80;;;0.10;99.90;;;;;;2603258;54;20023;31
2023/02/16 00:08:03;;;;;;;93.57;47.80;;;0.10;99.90;;;;;;2603407;54;20147;31
2023/02/16 00:10:38;;;;;;;85.15;43.70;;;0.00;99.90;;;;;;2621903;46;20058;31
2023/02/16 00:16:11;;;;;;;82.95;40.60;;;0.00;99.90;;;;;;2621469;46;20156;31
2023/02/16 00:18:46;;;;;;;100.95;46.90;;;-0.10;99.90;;;;;;2610293;46;20927;31
2023/02/16 00:21:27;;;;;;;90.47;43.47;;;-0.10;99.90;;;;;;2603317;54;20037;31
2023/02/16 00:27:13;;;;;;;94.53;46.88;;;-0.20;99.90;;;;;;2603171;54;20156;31
2023/02/16 00:30:01;;;;;;;86.10;43.85;;;-0.20;99.90;;;;;;2602994;54;20892;31
2023/02/16 00:39:03;;;;;;;96.93;47.28;;;-0.30;99.90;;;;;;2618534;46;20101;31
2023/02/16 00:42:01;;;;;;;87.57;42.83;;;-0.30;99.90;;;;;;2602783;54;20923;31
2023/02/16 00:58:42;;;;;;;101.30;49.10;;;-0.30;99.90;;;;;;2602890;54;20049;31
2023/02/16 01:54:48;;;;;;;110.47;54.15;;;-0.90;99.90;;;;;;2607811;46;19935;31
2023/02/16 03:51:24;;;;;;;120.00;57.37;;;-1.50;99.90;;;;;;2600830;54;20382;31
2023/02/16 07:32:34;;;;;;;112.93;57.15;;;0.60;99.90;;;;;;2600941;54;20924;31
2023/02/16 07:35:13;;;;;;;122.20;61.00;;;0.90;99.90;;;;;;2619125;46;20022;31
2023/02/16 07:37:48;;;;;;;118.55;62.92;;;1.10;99.90;;;;;;2607318;46;20037;31
2023/02/16 07:40:23;;;;;;;127.82;64.85;;;1.30;99.90;;;;;;2621716;46;20614;31
2023/02/16 07:43:00;;;;;;;108.75;56.42;;;1.50;99.90;;;;;;2701481;39;20488;31
2023/02/16 07:45:34;;;;;;;129.15;69.63;;;1.60;99.90;;;;;;2603408;54;21351;31
2023/02/16 07:48:08;;;;;;;160.10;87.03;;;1.90;99.90;;;;;;2621979;46;20919;31
2023/02/16 07:50:45;;;;;;;137.20;70.90;;;2.10;99.90;;;;;;2603474;54;20104;31
2023/02/16 07:53:20;;;;;;;128.73;64.70;;;2.20;99.90;;;;;;2603424;54;20160;31
2023/02/16 07:55:55;;;;;;;136.57;66.43;;;2.50;99.90;;;;;;2602591;54;20034;31
2023/02/16 07:58:30;;;;;;;165.97;81.30;;;2.70;99.90;;;;;;2622146;46;20053;31
2023/02/16 08:01:13;;;;;;;133.50;70.50;;;3.00;99.90;;;;;;2603364;54;20882;31
2023/02/16 08:03:49;;;;;;;119.10;63.42;;;3.20;99.90;;;;;;2602774;54;20870;31
2023/02/16 08:06:25;;;;;;;111.13;62.78;;;3.50;99.90;;;;;;2602415;54;20030;31
2023/02/16 08:08:59;;;;;;;104.00;56.93;;;3.80;99.90;;;;;;2622099;46;20038;31
2023/02/16 08:11:34;;;;;;;107.93;57.40;;;4.00;99.90;;;;;;2603212;54;20914;31
2023/02/16 08:14:07;;;;;;;101.70;55.00;;;4.10;99.90;;;;;;2603121;54;20822;31
2023/02/16 08:16:42;;;;;;;112.88;60.03;;;4.30;99.90;;;;;;2603205;54;20034;31
2023/02/16 08:19:17;;;;;;;110.30;61.40;;;4.40;99.90;;;;;;2603212;54;20839;31
2023/02/16 08:21:53;;;;;;;108.93;58.63;;;4.60;99.90;;;;;;2603262;54;20573;31
2023/02/16 08:24:28;;;;;;;110.15;61.42;;;4.80;99.90;;;;;;2621874;46;20030;31
2023/02/16 08:27:06;;;;;;;98.17;56.10;;;5.10;99.90;;;;;;2603291;54;20892;31
2023/02/16 08:29:40;;;;;;;104.32;58.75;;;5.20;99.90;;;;;;2603158;54;20068;31
2023/02/16 08:32:15;;;;;;;95.50;54.08;;;5.30;99.90;;;;;;2621431;46;20885;31
2023/02/16 08:34:50;;;;;;;94.80;51.95;;;5.60;99.90;;;;;;2603064;54;20030;31
2023/02/16 08:37:27;;;;;;;85.00;49.73;;;5.80;99.90;;;;;;2621459;46;20089;31
2023/02/16 08:40:03;;;;;;;89.15;49.63;;;6.10;99.90;;;;;;2603285;54;20242;31
2023/02/16 08:42:38;;;;;;;89.25;48.40;;;6.30;99.90;;;;;;2603419;54;20026;31
2023/02/16 08:45:14;;;;;;;81.15;46.95;;;6.50;99.90;;;;;;2603179;54;20089;31
2023/02/16 08:47:48;;;;;;;79.90;47.00;;;6.50;99.90;;;;;;2603120;54;20881;31
2023/02/16 08:50:22;;;;;;;83.55;47.58;;;6.60;99.90;;;;;;2603078;54;20160;31
2023/02/16 08:53:01;;;;;;;77.32;42.80;;;6.90;99.90;;;;;;2603356;54;20060;31
2023/02/16 08:55:37;;;;;;;75.93;44.92;;;7.10;99.90;;;;;;2621799;46;20844;31
2023/02/16 08:58:11;;;;;;;80.15;47.03;;;7.30;99.90;;;;;;2603408;54;20032;31
2023/02/16 09:00:44;;;;;;;77.10;45.42;;;7.50;99.90;;;;;;2621609;46;20031;31
2023/02/16 09:03:19;;;;;;;84.93;48.80;;;7.90;99.90;;;;;;2603055;54;20093;31
2023/02/16 09:05:54;;;;;;;85.85;47.60;;;8.10;99.90;;;;;;2603121;54;20026;31
2023/02/16 09:08:31;;;;;;;77.22;42.25;;;8.20;99.90;;;;;;2621787;47;20864;31
2023/02/16 09:11:06;;;;;;;70.82;39.60;;;8.40;99.90;;;;;;2621822;47;20868;31
2023/02/16 09:13:42;;;;;;;63.10;35.80;;;8.50;99.90;;;;;;2701780;39;20480;31
2023/02/16 09:16:17;;;;;;;59.20;35.38;;;8.70;99.90;;;;;;2603081;54;20113;31
2023/02/16 09:18:52;;;;;;;59.30;35.00;;;9.00;99.90;;;;;;2603119;54;20888;31
2023/02/16 09:21:27;;;;;;;53.80;33.42;;;9.20;99.90;;;;;;2621364;47;24813;31
2023/02/16 09:24:04;;;;;;;55.78;33.38;;;9.40;99.90;;;;;;2621311;47;19930;31
2023/02/16 09:26:41;;;;;;;56.88;34.17;;;9.70;99.90;;;;;;2621262;47;20049;31
2023/02/16 09:29:16;;;;;;;51.63;30.45;;;9.90;99.90;;;;;;2621176;47;20091;31
2023/02/16 09:31:51;;;;;;;47.90;29.00;;;10.00;99.90;;;;;;2603063;54;20031;31
2023/02/16 09:34:26;;;;;;;48.30;29.95;;;10.00;99.90;;;;;;2603052;54;20191;31
2023/02/16 09:37:01;;;;;;;47.95;29.10;;;10.10;99.90;;;;;;2603203;54;20884;31
2023/02/16 09:39:37;;;;;;;47.58;28.77;;;10.20;99.90;;;;;;2621639;47;20883;31
2023/02/16 09:42:19;;;;;;;48.58;28.75;;;10.20;99.90;;;;;;2621509;47;20033;31
2023/02/16 09:44:56;;;;;;;44.10;27.17;;;10.30;99.90;;;;;;2621015;47;20112;31
2023/02/16 09:47:31;;;;;;;39.83;27.25;;;10.30;99.90;;;;;;2621161;47;19935;31
2023/02/16 09:50:08;;;;;;;45.00;27.85;;;10.30;99.90;;;;;;2602387;54;20085;31
2023/02/16 09:52:45;;;;;;;45.75;29.08;;;10.50;99.90;;;;;;2621767;47;20062;31
2023/02/16 09:55:17;;;;;;;44.22;25.92;;;10.60;99.90;;;;;;2602832;54;20026;31
2023/02/16 09:58:07;;;;;;;45.38;27.70;;;10.80;99.90;;;;;;2602795;54;20030;31
2023/02/16 10:00:52;;;;;;;39.88;24.75;;;10.80;99.90;;;;;;2602918;54;20029;31
2023/02/16 10:03:37;;;;;;;41.63;24.27;;;10.80;99.90;;;;;;2621360;47;20030;31
2023/02/16 10:06:32;;;;;;;38.90;24.83;;;10.80;99.90;;;;;;2621541;47;20036;31
2023/02/16 10:09:10;;;;;;;38.40;23.95;;;10.70;99.90;;;;;;2603890;54;20987;31
2023/02/16 10:11:48;;;;;;;38.28;23.35;;;10.70;99.90;;;;;;2603903;54;20035;31
2023/02/16 10:14:32;;;;;;;38.03;22.92;;;10.70;99.90;;;;;;2603765;54;20027;31
2023/02/16 10:17:20;;;;;;;38.92;23.77;;;10.70;99.90;;;;;;2603798;54;19934;31
2023/02/16 10:19:56;;;;;;;35.50;22.10;;;10.80;99.90;;;;;;2622146;46;20022;31
2023/02/16 10:22:34;;;;;;;34.67;21.13;;;10.90;99.90;;;;;;2702258;39;20466;31
2023/02/16 10:25:12;;;;;;;34.70;21.85;;;10.90;99.90;;;;;;2622379;46;20149;31
2023/02/16 10:27:49;;;;;;;33.53;20.30;;;11.00;99.90;;;;;;2602949;54;20141;31
2023/02/16 10:30:27;;;;;;;32.70;21.25;;;11.00;99.90;;;;;;2603913;54;20023;31
2023/02/16 10:33:05;;;;;;;33.47;20.98;;;11.10;99.90;;;;;;2622491;46;20902;31
2023/02/16 10:35:42;;;;;;;34.75;20.95;;;11.10;99.90;;;;;;2603802;54;20903;31
2023/02/16 10:38:19;;;;;;;34.75;21.15;;;11.00;99.90;;;;;;2621915;46;20111;31
2023/02/16 10:40:57;;;;;;;29.80;19.80;;;10.90;99.90;;;;;;2603727;54;20031;31
2023/02/16 10:43:41;;;;;;;34.67;21.50;;;10.90;99.90;;;;;;2702089;39;20466;31
2023/02/16 10:46:22;;;;;;;32.95;21.90;;;10.70;99.90;;;;;;2603636;54;20153;31
2023/02/16 10:48:56;;;;;;;35.15;21.50;;;10.60;99.90;;;;;;2603795;54;20085;31
2023/02/16 10:51:32;;;;;;;37.53;22.42;;;10.60;99.90;;;;;;2603639;54;20039;31
2023/02/16 10:54:08;;;;;;;36.10;22.30;;;10.50;99.90;;;;;;2621659;46;20026;31
2023/02/16 10:56:53;;;;;;;;;;;10.40;99.90;;;;;;2603744;54;20767;31
2023/02/16 10:59:27;;;;;;;34.33;20.05;;;10.40;99.90;;;;;;2603651;54;20788;31
2023/02/16 11:02:10;;;;;;;35.08;21.25;;;10.40;99.90;;;;;;2603486;54;20089;31
2023/02/16 11:04:46;;;;;;;34.47;22.00;;;10.30;99.90;;;;;;2603545;54;20022;31
2023/02/16 11:07:22;;;;;;;34.80;23.00;;;10.30;99.90;;;;;;2603650;54;20100;31
2023/02/16 11:09:57;;;;;;;33.05;21.80;;;10.20;99.90;;;;;;2622404;46;20032;31
2023/02/16 11:12:33;;;;;;;37.75;21.48;;;10.10;99.90;;;;;;2603619;54;20623;31
2023/02/16 11:15:08;;;;;;;34.25;21.90;;;10.10;99.90;;;;;;2603281;54;20085;31
2023/02/16 11:17:53;;;;;;;33.10;21.65;;;10.10;99.90;;;;;;2621662;46;20033;31
2023/02/16 11:20:30;;;;;;;29.90;20.38;;;10.00;99.90;;;;;;2603493;54;20023;31
2023/02/16 11:23:15;;;;;;;38.78;21.77;;;10.20;99.90;;;;;;2701827;39;20450;31
2023/02/16 11:25:56;;;;;;;35.88;22.00;;;10.20;99.90;;;;;;2603015;54;20037;31
2023/02/16 11:28:36;;;;;;;34.00;22.75;;;10.10;99.90;;;;;;2603709;54;20029;31
2023/02/16 11:31:18;;;;;;;34.72;21.85;;;10.10;99.90;;;;;;2621809;46;20022;31
2023/02/16 11:34:03;;;;;;;33.58;22.63;;;10.10;99.90;;;;;;2603265;47;20752;31
2023/02/16 11:36:40;;;;;;;36.77;22.67;;;10.10;99.90;;;;;;2603399;54;20038;31
2023/02/16 11:39:18;;;;;;;35.93;22.33;;;10.20;99.90;;;;;;2603656;54;20812;31
2023/02/16 11:41:53;;;;;;;33.45;21.55;;;10.30;99.90;;;;;;2603414;54;20921;31
2023/02/16 11:46:58;;;;;;;33.95;21.55;;;10.20;99.90;;;;;;2621739;46;20936;31
2023/02/16 11:49:35;;;;;;;35.63;22.23;;;10.20;99.90;;;;;;2603478;54;20034;31
2023/02/16 11:52:21;;;;;;;31.63;20.87;;;10.10;99.90;;;;;;2603676;54;20033;31
2023/02/16 11:54:56;;;;;;;33.42;21.23;;;10.10;99.90;;;;;;2622081;46;20022;31
2023/02/16 11:57:32;;;;;;;35.17;20.77;;;10.00;99.90;;;;;;2701147;39;20505;31
2023/02/16 12:00:16;;;;;;;38.00;21.60;;;9.90;99.90;;;;;;2603543;54;20033;31
2023/02/16 12:03:18;;;;;;;33.08;21.80;;;9.80;99.90;;;;;;2603440;54;21669;31
2023/02/16 12:06:02;;;;;;;35.72;21.50;;;9.80;99.90;;;;;;2603524;54;20057;31
2023/02/16 12:08:57;;;;;;;34.17;21.88;;;9.80;99.90;;;;;;2603504;54;20562;31
2023/02/16 12:11:36;;;;;;;33.78;21.92;;;9.80;99.90;;;;;;2621821;46;20109;31
2023/02/16 12:14:47;;;;;;;32.20;20.90;;;9.80;99.90;;;;;;2603251;54;20916;31
2023/02/16 12:17:27;;;;;;;34.90;21.05;;;9.80;99.90;;;;;;2622222;46;20891;31
2023/02/16 12:20:05;;;;;;;34.63;21.55;;;9.80;99.90;;;;;;2622310;46;20026;31
2023/02/16 12:22:45;;;;;;;32.25;21.27;;;9.80;99.90;;;;;;2622054;46;20026;31
2023/02/16 12:25:27;;;;;;;35.45;21.85;;;9.90;99.90;;;;;;2603312;54;21707;31
2023/02/16 12:28:04;;;;;;;33.10;20.70;;;9.80;99.90;;;;;;2603256;54;20728;31
2023/02/16 12:30:45;;;;;;;35.28;21.52;;;9.90;99.90;;;;;;2603265;54;20085;31
2023/02/16 12:33:29;;;;;;;37.65;22.13;;;9.90;99.90;;;;;;2702028;39;21038;31
2023/02/16 12:36:14;;;;;;;35.88;21.20;;;9.80;99.90;;;;;;2701760;39;20548;31
2023/02/16 12:38:56;;;;;;;36.47;21.58;;;9.80;99.90;;;;;;2603193;54;21044;31
2023/02/16 12:41:37;;;;;;;34.90;21.80;;;9.80;99.90;;;;;;2603256;54;20918;31
2023/02/16 12:44:15;;;;;;;33.63;20.67;;;9.70;99.90;;;;;;2603194;54;20137;31
2023/02/16 12:46:51;;;;;;;33.40;22.08;;;9.70;99.90;;;;;;2603158;54;20559;31
2023/02/16 12:49:28;;;;;;;38.47;22.15;;;9.70;99.90;;;;;;2621478;46;21013;31
2023/02/16 12:52:05;;;;;;;36.95;22.73;;;9.70;99.90;;;;;;2621407;46;20033;31
2023/02/16 12:54:44;;;;;;;35.90;22.60;;;9.60;99.90;;;;;;2603549;54;20830;31
2023/02/16 12:57:20;;;;;;;37.15;23.50;;;9.60;99.90;;;;;;2621595;46;20033;31
2023/02/16 12:59:58;;;;;;;38.05;22.92;;;9.50;99.90;;;;;;2603166;54;20855;31
2023/02/16 13:02:34;;;;;;;36.55;21.90;;;9.50;99.90;;;;;;2603191;54;20921;31
2023/02/16 13:05:10;;;;;;;38.53;23.80;;;9.40;99.90;;;;;;2719971;39;21656;31
2023/02/16 13:07:45;;;;;;;42.33;24.20;;;9.40;99.90;;;;;;2603114;54;20093;31
2023/02/16 13:10:24;;;;;;;39.80;23.38;;;9.40;99.90;;;;;;2603265;54;20074;31
2023/02/16 13:13:02;;;;;;;35.75;23.23;;;9.30;99.90;;;;;;2603240;54;20031;31
2023/02/16 13:15:38;;;;;;;40.40;23.60;;;9.30;99.90;;;;;;2603121;54;20057;31
2023/02/16 13:18:17;;;;;;;36.00;23.65;;;9.30;99.90;;;;;;2602959;54;20033;31
2023/02/16 13:20:52;;;;;;;44.63;26.13;;;9.30;99.90;;;;;;2602238;54;20018;31
2023/02/16 13:23:40;;;;;;;39.75;23.67;;;9.20;99.90;;;;;;2603345;54;20814;31
2023/02/16 13:26:41;;;;;;;39.80;22.90;;;9.20;99.90;;;;;;2603204;54;20022;31
2023/02/16 13:29:43;;;;;;;42.33;25.88;;;9.20;99.90;;;;;;2603317;54;20089;31
2023/02/16 13:32:32;;;;;;;41.15;24.40;;;9.20;99.90;;;;;;2603100;54;20031;31
2023/02/16 13:35:24;;;;;;;43.47;27.15;;;9.20;99.90;;;;;;2621243;47;20027;31
2023/02/16 13:38:06;;;;;;;42.42;25.08;;;9.30;99.90;;;;;;2701459;39;20601;31
2023/02/16 13:41:08;;;;;;;41.38;25.35;;;9.20;99.90;;;;;;2621772;47;20022;31
2023/02/16 13:43:45;;;;;;;40.17;25.27;;;9.20;99.90;;;;;;2622342;46;20022;31
2023/02/16 13:46:21;;;;;;;43.20;24.70;;;9.10;99.90;;;;;;2604130;54;20857;31
2023/02/16 13:48:56;;;;;;;38.83;23.75;;;9.10;99.90;;;;;;2622341;46;20034;31
2023/02/16 13:51:30;;;;;;;47.33;25.63;;;9.10;99.90;;;;;;2603817;54;20570;31
2023/02/16 13:54:05;;;;;;;40.87;23.97;;;9.10;99.90;;;;;;2603831;54;20030;31
2023/02/16 13:56:40;;;;;;;42.20;24.63;;;9.10;99.90;;;;;;2603978;54;20030;31
2023/02/16 13:59:44;;;;;;;39.50;23.60;;;9.10;99.90;;;;;;2702531;39;20447;31
2023/02/16 14:02:54;;;;;;;39.70;23.85;;;9.10;99.90;;;;;;2622467;46;20877;31
2023/02/16 14:05:32;;;;;;;40.53;23.55;;;9.10;99.90;;;;;;2702464;39;21624;31
2023/02/16 14:08:28;;;;;;;41.30;24.55;;;9.10;99.90;;;;;;2606352;46;21691;31
2023/02/16 14:11:07;;;;;;;40.80;25.67;;;9.10;99.90;;;;;;2792428;31;21648;31
2023/02/16 14:13:51;;;;;;;41.75;24.40;;;9.10;99.90;;;;;;2622035;46;20102;31
2023/02/16 14:16:31;;;;;;;38.65;23.05;;;9.10;99.90;;;;;;2603918;54;20028;31
2023/02/16 14:19:19;;;;;;;38.70;23.03;;;9.00;99.90;;;;;;2702162;39;21623;31
2023/02/16 14:21:54;;;;;;;44.05;25.70;;;9.00;99.90;;;;;;2603826;54;20037;31
2023/02/16 14:24:32;;;;;;;40.08;23.75;;;9.00;99.90;;;;;;2622325;46;20704;31
2023/02/16 14:27:09;;;;;;;39.53;23.83;;;9.00;99.90;;;;;;2603748;54;20201;31
2023/02/16 14:29:43;;;;;;;41.70;23.23;;;9.00;99.90;;;;;;2603627;54;20928;31
2023/02/16 14:32:23;;;;;;;39.05;23.38;;;9.00;99.90;;;;;;2603615;54;20101;31
2023/02/16 14:35:06;;;;;;;41.17;25.95;;;9.00;99.90;;;;;;2622334;46;20895;31
2023/02/16 14:37:43;;;;;;;41.05;24.85;;;9.00;99.90;;;;;;2622349;46;20026;31
2023/02/16 14:40:19;;;;;;;45.75;23.65;;;9.00;99.90;;;;;;2603913;54;20112;31
2023/02/16 14:42:56;;;;;;;41.58;24.98;;;9.00;99.90;;;;;;2603973;54;20611;31
2023/02/16 14:45:33;;;;;;;;;;;9.00;99.90;;;;;;2603908;54;20034;31
2023/02/16 14:48:12;;;;;;;40.75;22.75;;;9.00;99.90;;;;;;2603694;54;19942;31
2023/02/16 14:50:56;;;;;;;39.60;22.25;;;9.00;99.90;;;;;;2603688;54;20890;31
2023/02/16 14:54:07;;;;;;;42.53;23.23;;;8.90;99.90;;;;;;2603552;54;20104;31
2023/02/16 14:56:45;;;;;;;40.95;22.88;;;8.90;99.90;;;;;;2603436;54;20026;31
2023/02/16 14:59:19;;;;;;;42.47;24.58;;;8.90;99.90;;;;;;2603579;54;20026;31
2023/02/16 15:01:54;;;;;;;33.30;21.67;;;8.90;99.90;;;;;;2603536;54;19988;31
2023/02/16 15:04:29;;;;;;;40.42;24.77;;;8.90;99.90;;;;;;2702176;39;20385;31
2023/02/16 15:07:09;;;;;;;37.42;22.95;;;8.90;99.90;;;;;;2603510;54;20810;31
2023/02/16 15:12:26;;;;;;;40.10;24.45;;;8.90;99.90;;;;;;2622462;46;20089;31
2023/02/16 15:15:00;;;;;;;42.70;24.85;;;8.80;99.90;;;;;;2603819;54;20632;31
2023/02/16 15:17:36;;;;;;;41.77;25.73;;;8.90;99.90;;;;;;2701950;39;20548;31
2023/02/16 15:20:13;;;;;;;44.47;25.85;;;8.80;99.90;;;;;;2603695;54;20055;31
2023/02/16 15:22:53;;;;;;;43.53;24.25;;;8.80;99.90;;;;;;2720838;39;20990;31
2023/02/16 15:25:28;;;;;;;65.53;34.92;;;8.80;99.90;;;;;;2603722;54;20026;31
2023/02/16 15:28:03;;;;;;;44.15;27.42;;;8.70;99.90;;;;;;2603779;54;20030;31
2023/02/16 15:30:38;;;;;;;44.85;25.58;;;8.70;99.90;;;;;;2603520;54;20647;31
2023/02/16 15:33:14;;;;;;;40.50;24.52;;;8.60;99.90;;;;;;2622308;46;20022;31
2023/02/16 15:35:49;;;;;;;39.20;23.45;;;8.60;99.90;;;;;;2622121;46;20030;31
2023/02/16 15:38:27;;;;;;;38.15;23.15;;;8.50;99.90;;;;;;2603540;54;20886;31
2023/02/16 15:41:02;;;;;;;40.17;24.10;;;8.50;99.90;;;;;;2621670;46;20145;31
2023/02/16 15:43:38;;;;;;;43.70;25.85;;;8.40;99.90;;;;;;2603790;54;20877;31
2023/02/16 15:46:12;;;;;;;42.80;24.95;;;8.30;99.90;;;;;;2622264;46;20026;31
2023/02/16 15:48:48;;;;;;;42.40;24.15;;;8.20;99.90;;;;;;2603478;54;20027;31
2023/02/16 15:51:24;;;;;;;42.92;25.13;;;8.20;99.90;;;;;;2603575;54;20155;31
2023/02/16 15:54:01;;;;;;;;;;;8.20;99.90;;;;;;2603749;54;20848;31
2023/02/16 15:56:39;;;;;;;42.47;23.42;;;8.00;99.90;;;;;;2603555;54;19994;31
2023/02/16 15:59:30;;;;;;;41.65;23.70;;;8.00;99.90;;;;;;2603323;54;20932;31
2023/02/16 16:02:13;;;;;;;39.30;22.75;;;8.00;99.90;;;;;;2622267;46;20904;31
2023/02/16 16:04:49;;;;;;;44.28;25.10;;;7.90;99.90;;;;;;2603375;54;20569;31
2023/02/16 16:07:24;;;;;;;45.80;25.85;;;7.80;99.90;;;;;;2603714;54;20026;31
2023/02/16 16:10:02;;;;;;;46.20;25.98;;;7.70;99.90;;;;;;2603459;54;20914;31
2023/02/16 16:12:37;;;;;;;52.67;28.10;;;7.70;99.90;;;;;;2702050;39;21654;31
2023/02/16 16:15:16;;;;;;;44.20;25.70;;;7.80;99.90;;;;;;2703036;39;20562;31
2023/02/16 16:17:50;;;;;;;44.03;24.50;;;7.60;99.90;;;;;;2603548;54;20104;31
2023/02/16 16:20:29;;;;;;;49.80;27.60;;;7.60;99.90;;;;;;2702166;39;21042;31
2023/02/16 16:23:05;;;;;;;43.45;25.05;;;7.50;99.90;;;;;;2603391;54;20107;31
2023/02/16 16:25:43;;;;;;;;;;;7.50;99.90;;;;;;2603570;54;20031;31
2023/02/16 16:28:35;;;;;;;40.58;22.00;;;7.40;99.90;;;;;;2622012;46;20758;31
2023/02/16 16:31:10;;;;;;;48.55;25.88;;;7.30;99.90;;;;;;2603351;54;20136;31
2023/02/16 16:33:55;;;;;;;40.80;24.20;;;7.30;99.90;;;;;;2603273;54;20042;31
2023/02/16 16:36:30;;;;;;;44.80;25.95;;;7.20;99.90;;;;;;2603283;54;20581;31
2023/02/16 16:39:27;;;;;;;51.55;28.10;;;7.10;99.90;;;;;;2603177;54;20052;31
2023/02/16 16:44:35;;;;;;;50.80;29.47;;;6.90;99.90;;;;;;2621633;46;20238;31
2023/02/16 16:47:22;;;;;;;54.75;31.67;;;6.90;99.90;;;;;;2603205;54;20038;31
2023/02/16 16:49:57;;;;;;;63.97;36.58;;;6.80;99.90;;;;;;2622044;46;20026;31
2023/02/16 16:52:35;;;;;;;61.80;35.28;;;6.80;99.90;;;;;;2603464;54;20026;31
2023/02/16 16:55:23;;;;;;;60.38;33.47;;;6.70;99.90;;;;;;2603099;54;20099;31
2023/02/16 16:58:02;;;;;;;59.90;32.88;;;6.60;99.90;;;;;;2603183;54;20031;31
2023/02/16 17:00:41;;;;;;;54.37;31.00;;;6.60;99.90;;;;;;2603155;54;20763;31
2023/02/16 17:03:17;;;;;;;51.42;28.73;;;6.50;99.90;;;;;;2603360;54;20030;31
2023/02/16 17:05:53;;;;;;;48.38;27.30;;;6.50;99.90;;;;;;2603125;54;20919;31
2023/02/16 17:08:28;;;;;;;60.92;32.63;;;6.40;99.90;;;;;;2603148;54;20604;31
2023/02/16 17:11:02;;;;;;;55.15;31.35;;;6.40;99.90;;;;;;2773040;31;20524;31
2023/02/16 17:13:36;;;;;;;64.72;33.58;;;6.30;99.90;;;;;;2603269;54;20160;31
2023/02/16 17:16:13;;;;;;;65.07;35.60;;;6.30;99.90;;;;;;2603623;54;20063;31
2023/02/16 17:18:48;;;;;;;77.43;43.22;;;6.20;99.90;;;;;;2603870;54;19935;31
2023/02/16 17:21:23;;;;;;;82.65;47.95;;;6.20;99.90;;;;;;2702506;39;20516;31
2023/02/16 17:23:57;;;;;;;83.20;47.83;;;6.10;99.90;;;;;;2603762;54;20897;31
2023/02/16 17:26:31;;;;;;;72.85;42.50;;;6.10;99.90;;;;;;2603883;54;20937;31
2023/02/16 17:29:06;;;;;;;68.95;38.70;;;6.00;99.90;;;;;;2603885;54;20026;31
2023/02/16 17:31:43;;;;;;;61.75;34.95;;;6.00;99.90;;;;;;2604070;54;20056;31
2023/02/16 17:34:18;;;;;;;59.17;34.47;;;5.90;99.90;;;;;;2604153;54;20023;31
2023/02/16 17:36:52;;;;;;;53.95;29.98;;;5.90;99.90;;;;;;2603808;54;20026;31
2023/02/16 17:39:27;;;;;;;51.87;29.57;;;5.90;99.90;;;;;;2603780;54;20030;31
2023/02/16 17:42:01;;;;;;;55.55;29.45;;;5.80;99.90;;;;;;2603903;54;20111;31
2023/02/16 17:44:36;;;;;;;49.45;27.73;;;5.70;99.90;;;;;;2702354;39;20544;31
2023/02/16 17:47:15;;;;;;;51.35;28.02;;;5.70;99.90;;;;;;2622610;46;20026;31
2023/02/16 17:49:49;;;;;;;52.75;29.27;;;5.60;99.90;;;;;;2603856;54;20034;31
2023/02/16 17:52:27;;;;;;;51.90;28.85;;;5.60;99.90;;;;;;2604008;54;20029;31
2023/02/16 17:55:04;;;;;;;51.70;27.93;;;5.60;99.90;;;;;;2603921;54;20030;31
2023/02/16 17:57:39;;;;;;;49.92;26.77;;;5.60;99.90;;;;;;2621925;46;20108;31
2023/02/16 18:00:17;;;;;;;56.63;30.10;;;5.50;99.90;;;;;;2615517;46;19942;31
2023/02/16 18:02:57;;;;;;;59.63;30.83;;;5.50;99.90;;;;;;2604002;54;20792;31
2023/02/16 18:05:34;;;;;;;51.45;29.20;;;5.40;99.90;;;;;;2603967;54;20026;31
2023/02/16 18:08:08;;;;;;;57.87;30.80;;;5.40;99.90;;;;;;2702486;39;20535;31
2023/02/16 18:10:43;;;;;;;54.10;30.70;;;5.40;99.90;;;;;;2622395;46;19943;31
2023/02/16 18:13:18;;;;;;;53.17;30.13;;;5.40;99.90;;;;;;2621879;46;20930;31
2023/02/16 18:15:53;;;;;;;53.28;29.65;;;5.30;99.90;;;;;;2603711;54;20031;31
2023/02/16 18:18:31;;;;;;;58.03;32.50;;;5.30;99.90;;;;;;2702515;39;21654;31
2023/02/16 18:21:12;;;;;;;51.80;29.52;;;5.30;99.90;;;;;;2603671;54;20030;31
2023/02/16 18:23:47;;;;;;;53.85;30.08;;;5.20;99.90;;;;;;2603623;54;20945;31
2023/02/16 18:26:22;;;;;;;59.75;31.17;;;5.20;99.90;;;;;;2603693;54;20049;31
2023/02/16 18:29:01;;;;;;;54.85;31.00;;;5.20;99.90;;;;;;2702086;39;20481;31
2023/02/16 18:31:42;;;;;;;62.95;33.85;;;5.10;99.90;;;;;;2603779;54;20027;31
2023/02/16 18:34:19;;;;;;;48.63;27.47;;;5.00;99.90;;;;;;2603566;54;20029;31
2023/02/16 18:36:57;;;;;;;58.78;32.10;;;5.00;99.90;;;;;;2603443;54;20243;31
2023/02/16 18:39:34;;;;;;;59.30;32.33;;;5.00;99.90;;;;;;2621911;46;20022;31
2023/02/16 18:42:08;;;;;;;61.92;33.67;;;4.90;99.90;;;;;;2603753;54;19940;31
2023/02/16 18:44:43;;;;;;;64.47;33.45;;;4.80;99.90;;;;;;2603515;54;20756;31
2023/02/16 18:47:18;;;;;;;59.60;32.40;;;4.80;99.90;;;;;;2603666;54;20894;31
2023/02/16 18:49:56;;;;;;;60.38;34.03;;;4.80;99.90;;;;;;2603728;54;20093;31
2023/02/16 18:52:31;;;;;;;57.25;31.55;;;4.70;99.90;;;;;;2603424;54;20030;31
2023/02/16 18:55:06;;;;;;;62.92;33.83;;;4.70;99.90;;;;;;2622103;46;20631;31
2023/02/16 18:57:41;;;;;;;63.23;32.60;;;4.70;99.90;;;;;;2603578;54;20033;31
2023/02/16 19:00:20;;;;;;;59.28;32.55;;;4.60;99.90;;;;;;2622147;46;20175;31
2023/02/16 19:02:56;;;;;;;62.80;33.80;;;4.60;99.90;;;;;;2621536;46;20086;31
2023/02/16 19:05:32;;;;;;;57.60;32.17;;;4.50;99.90;;;;;;2618474;46;20104;31
2023/02/16 19:08:11;;;;;;;58.85;32.28;;;4.50;99.90;;;;;;2603605;54;20974;31
2023/02/16 19:10:50;;;;;;;67.85;33.67;;;4.40;99.90;;;;;;2702238;39;20550;31
2023/02/16 19:13:25;;;;;;;61.70;33.13;;;4.40;99.90;;;;;;2702068;39;20472;31
2023/02/16 19:15:57;;;;;;;62.45;32.80;;;4.30;99.90;;;;;;2702067;39;22368;31
2023/02/16 19:18:31;;;;;;;61.40;33.50;;;4.30;99.90;;;;;;2605775;46;20796;31
2023/02/16 19:21:15;;;;;;;59.70;31.88;;;4.20;99.90;;;;;;2603487;54;20874;31
2023/02/16 19:24:03;;;;;;;61.83;33.17;;;4.20;99.90;;;;;;2603305;54;20949;31
2023/02/16 19:26:43;;;;;;;58.33;31.90;;;4.20;99.90;;;;;;2621799;46;20916;31
2023/02/16 19:29:20;;;;;;;73.25;36.83;;;4.20;99.90;;;;;;2720197;39;21614;31
2023/02/16 19:31:56;;;;;;;67.20;34.65;;;4.10;99.90;;;;;;2603276;54;20045;31
2023/02/16 19:34:34;;;;;;;67.57;35.08;;;4.10;99.90;;;;;;2603366;54;20038;31
2023/02/16 19:37:14;;;;;;;70.20;35.95;;;4.00;99.90;;;;;;2603371;54;20833;31
2023/02/16 19:39:52;;;;;;;66.82;35.83;;;4.10;99.90;;;;;;2602925;54;20030;31
2023/02/16 19:42:26;;;;;;;60.20;31.67;;;4.00;99.90;;;;;;2603525;54;20023;31
2023/02/16 19:45:05;;;;;;;;;;;4.00;99.90;;;;;;2603711;54;20758;31
2023/02/16 19:47:38;;;;;;;60.70;32.53;;;4.00;99.90;;;;;;2603441;54;19930;31
2023/02/16 19:50:16;;;;;;;61.47;30.63;;;4.00;99.90;;;;;;2603508;54;20022;31
2023/02/16 19:52:54;;;;;;;69.93;34.72;;;4.00;99.90;;;;;;2603339;54;20262;31
2023/02/16 19:55:29;;;;;;;64.63;31.33;;;3.90;99.90;;;;;;2621660;46;20026;31
2023/02/16 19:58:06;;;;;;;60.53;30.23;;;3.90;99.90;;;;;;2605083;46;20030;31
2023/02/16 20:00:41;;;;;;;65.75;34.30;;;3.90;99.90;;;;;;2603209;54;20031;31
2023/02/16 20:03:16;;;;;;;71.55;35.42;;;3.90;99.90;;;;;;2621979;46;20611;31
2023/02/16 20:05:58;;;;;;;70.43;35.60;;;3.80;99.90;;;;;;2603222;54;20038;31
2023/02/16 20:08:37;;;;;;;68.60;34.40;;;3.90;99.90;;;;;;2603413;54;20029;31
2023/02/16 20:11:15;;;;;;;61.10;31.60;;;3.80;99.90;;;;;;2621208;46;20042;31
2023/02/16 20:13:54;;;;;;;73.95;38.67;;;3.80;99.90;;;;;;2621773;46;20875;31
2023/02/16 20:16:30;;;;;;;63.80;34.42;;;3.80;99.90;;;;;;2603179;54;20026;31
2023/02/16 20:19:08;;;;;;;55.97;30.50;;;3.70;99.90;;;;;;2602992;54;20093;31
2023/02/16 20:24:30;;;;;;;70.90;36.45;;;3.70;99.90;;;;;;2603418;54;20797;31
2023/02/16 20:27:05;;;;;;;63.25;33.03;;;3.70;99.90;;;;;;2603265;54;20019;31
2023/02/16 20:29:50;;;;;;;72.05;35.30;;;3.70;99.90;;;;;;2620428;46;20026;31
2023/02/16 20:32:32;;;;;;;56.63;31.65;;;3.70;99.90;;;;;;2621354;46;20895;31
2023/02/16 20:35:14;;;;;;;73.07;38.10;;;3.60;99.90;;;;;;2603137;54;20029;31
2023/02/16 20:37:52;;;;;;;;;;;3.60;99.90;;;;;;2701917;39;20447;31
2023/02/16 20:40:36;;;;;;;66.70;34.08;;;3.60;99.90;;;;;;2791560;31;21547;31
2023/02/16 20:43:19;;;;;;;64.68;33.47;;;3.60;99.90;;;;;;2602282;54;20953;31
2023/02/16 20:45:58;;;;;;;60.00;31.35;;;3.60;99.90;;;;;;2602992;54;20032;31